Time;durP1;ratioP1;P1;durP2;ratioP2;P2;SDS_P1;SDS_P2;PMS_P1;PMS_P2;Temp;Humidity;BMP_temperature;BMP_pressure;BME280_temperature;BME280_humidity;BME280_pressure;Samples;Min_cycle;Max_cycle;Signal;HPM_P1;HPM_P2
2022/12/08 00:00:45;;;;;;;34.72;18.77;;;;;;;7.59;80.74;99664.47;5072186;28;20038;-44
2022/12/08 00:03:11;;;;;;;36.85;19.75;;;;;;;7.83;80.98;99695.13;5072014;28;20024;-44
2022/12/08 00:11:04;;;;;;;36.38;19.15;;;;;;;7.71;80.72;99696.59;5071900;28;20047;-45
2022/12/08 00:13:30;;;;;;;40.13;19.45;;;;;;;7.87;80.69;99704.31;5071955;28;20539;-45
2022/12/08 00:15:59;;;;;;;37.33;19.92;;;;;;;7.94;80.52;99710.53;5072037;28;20056;-44
2022/12/08 00:18:25;;;;;;;38.42;19.60;;;;;;;7.79;81.20;99712.41;5071817;28;20040;-44
2022/12/08 00:20:57;;;;;;;37.10;20.05;;;;;;;7.86;80.53;99701.84;5072096;28;20035;-45
2022/12/08 00:23:23;;;;;;;34.40;19.15;;;;;;;7.87;80.21;99706.16;5072141;28;20107;-45
2022/12/08 00:25:48;;;;;;;35.58;18.10;;;;;;;7.97;80.35;99714.63;5072392;28;20099;-45
2022/12/08 00:28:14;;;;;;;38.10;19.25;;;;;;;7.95;80.18;99711.34;5072067;28;20492;-44
2022/12/08 00:30:40;;;;;;;34.13;19.35;;;;;;;8.03;79.90;99721.81;5072319;28;20512;-42
2022/12/08 00:33:06;;;;;;;39.92;19.27;;;;;;;7.91;79.92;99721.50;5072286;28;20024;-45
2022/12/08 00:35:31;;;;;;;35.92;19.20;;;;;;;7.91;79.37;99672.97;5072289;28;20077;-45
2022/12/08 00:37:57;;;;;;;35.80;18.73;;;;;;;7.96;79.35;99713.00;5072126;28;20016;-44
2022/12/08 00:40:22;;;;;;;34.83;19.15;;;;;;;8.12;79.43;99711.94;5071807;28;20062;-45
2022/12/08 00:42:48;;;;;;;41.95;20.48;;;;;;;7.99;79.71;99715.25;5072286;28;20028;-45
2022/12/08 00:45:13;;;;;;;41.35;20.90;;;;;;;7.78;80.34;99719.50;5071811;28;20472;-46
2022/12/08 00:47:39;;;;;;;38.85;20.15;;;;;;;7.96;80.35;99713.81;5071042;28;20448;-47
2022/12/08 00:50:05;;;;;;;39.47;19.90;;;;;;;7.79;81.23;99715.84;5071940;28;20027;-45
2022/12/08 00:52:30;;;;;;;38.55;20.15;;;;;;;7.75;81.94;99709.28;5071600;28;20094;-46
2022/12/08 00:54:56;;;;;;;36.53;18.80;;;;;;;7.95;81.14;99704.19;5071562;28;20044;-46
2022/12/08 00:57:21;;;;;;;37.50;19.85;;;;;;;8.01;80.70;99703.47;5070389;28;20823;-45
2022/12/08 00:59:46;;;;;;;45.33;20.95;;;;;;;8.10;80.20;99700.69;5069806;28;20078;-46
2022/12/08 01:02:12;;;;;;;37.47;20.30;;;;;;;8.12;79.60;99702.16;5069791;28;20399;-48
2022/12/08 01:04:37;;;;;;;39.47;20.50;;;;;;;8.21;79.65;99695.72;5071366;28;20464;-45
2022/12/08 01:07:03;;;;;;;37.35;19.35;;;;;;;8.16;79.72;99703.41;5071461;28;20482;-45
2022/12/08 01:09:28;;;;;;;38.60;19.75;;;;;;;8.05;80.51;99698.59;5070977;28;20468;-44
2022/12/08 01:11:54;;;;;;;36.33;20.08;;;;;;;8.26;79.44;99712.88;5071327;28;20016;-44
2022/12/08 01:14:19;;;;;;;35.08;19.63;;;;;;;8.31;79.05;99705.19;5070990;28;20024;-44
2022/12/08 01:16:45;;;;;;;36.92;19.73;;;;;;;7.67;80.82;99708.56;5071442;28;20048;-44
2022/12/08 01:19:13;;;;;;;40.33;20.00;;;;;;;7.58;82.06;99713.16;5071344;28;20369;-43
2022/12/08 01:21:39;;;;;;;41.22;20.27;;;;;;;7.66;81.89;99707.75;5071140;28;20028;-44
2022/12/08 01:24:05;;;;;;;39.20;20.30;;;;;;;7.74;81.53;99714.78;5070983;28;20024;-45
2022/12/08 01:26:30;;;;;;;38.58;20.27;;;;;;;7.91;80.96;99710.06;5071295;28;20333;-45
2022/12/08 01:28:55;;;;;;;39.53;20.10;;;;;;;7.94;81.03;99718.47;5070789;28;20031;-45
2022/12/08 01:31:21;;;;;;;38.70;20.67;;;;;;;7.79;81.63;99709.75;5070980;28;20028;-45
2022/12/08 01:33:47;;;;;;;41.78;19.98;;;;;;;7.96;81.39;99718.28;5070995;28;20024;-45
2022/12/08 01:36:35;;;;;;;38.13;20.23;;;;;;;8.14;80.85;99717.88;5071351;28;20025;-44
2022/12/08 01:39:02;;;;;;;39.70;20.13;;;;;;;7.91;80.71;99726.78;5071067;28;20021;-45
2022/12/08 01:41:30;;;;;;;38.45;19.08;;;;;;;8.12;80.71;99726.00;5070936;28;20025;-44
2022/12/08 01:43:58;;;;;;;36.03;18.77;;;;;;;8.00;80.50;99693.88;5070691;28;20114;-44
2022/12/08 01:46:25;;;;;;;37.90;18.77;;;;;;;8.12;80.87;99711.94;5070705;28;20025;-44
2022/12/08 01:48:55;;;;;;;38.92;18.50;;;;;;;8.22;80.52;99707.97;5070549;28;20027;-44
2022/12/08 01:51:21;;;;;;;33.03;18.27;;;;;;;8.27;79.95;99714.53;5070674;28;20028;-44
2022/12/08 01:53:47;;;;;;;37.47;19.02;;;;;;;8.15;81.22;99711.56;5070598;28;20091;-44
2022/12/08 01:56:27;;;;;;;35.17;18.38;;;;;;;8.16;80.64;99713.19;5070668;28;20104;-46
2022/12/08 01:58:54;;;;;;;32.38;17.67;;;;;;;8.12;80.38;99714.59;5070649;28;20020;-44
2022/12/08 02:01:20;;;;;;;35.65;17.92;;;;;;;8.29;79.68;99708.03;5070521;28;20025;-44
2022/12/08 02:03:52;;;;;;;35.78;17.83;;;;;;;8.30;79.58;99709.69;5070833;28;20024;-44
2022/12/08 02:06:19;;;;;;;33.20;17.13;;;;;;;8.26;79.82;99699.63;5070864;28;20024;-45
2022/12/08 02:08:45;;;;;;;36.58;18.00;;;;;;;8.27;79.72;99699.44;5070419;28;20021;-45
2022/12/08 02:11:11;;;;;;;32.78;17.40;;;;;;;8.17;79.55;99704.25;5070684;28;20044;-44
2022/12/08 02:13:39;;;;;;;36.47;17.77;;;;;;;8.44;78.60;99700.03;5070448;28;20086;-44
2022/12/08 02:16:07;;;;;;;33.70;16.52;;;;;;;8.41;78.49;99692.41;5069960;28;20049;-45
2022/12/08 02:18:32;;;;;;;31.77;17.48;;;;;;;8.21;79.09;99692.25;5070664;28;20059;-44
2022/12/08 02:21:16;;;;;;;34.47;18.55;;;;;;;8.20;79.78;99701.19;5071161;28;20052;-47
2022/12/08 02:23:50;;;;;;;34.00;17.98;;;;;;;8.02;79.68;99681.25;5070571;28;20129;-45
2022/12/08 02:26:50;;;;;;;35.60;18.23;;;;;;;8.19;79.67;99712.84;5070684;28;20490;-45
2022/12/08 02:29:43;;;;;;;35.65;18.45;;;;;;;7.99;80.39;99708.13;5070865;28;20025;-44
2022/12/08 02:32:39;;;;;;;33.35;17.80;;;;;;;7.98;80.45;99698.53;5074170;28;20078;-44
2022/12/08 02:35:13;;;;;;;33.53;16.90;;;;;;;7.92;81.66;99701.94;5074303;28;20035;-43
2022/12/08 02:37:55;;;;;;;36.20;17.77;;;;;;;8.18;80.39;99705.88;5074170;28;20108;-45
2022/12/08 02:40:29;;;;;;;31.58;16.48;;;;;;;8.11;80.02;99712.94;5073971;28;20020;-45
2022/12/08 02:43:01;;;;;;;31.92;16.73;;;;;;;8.20;80.31;99715.25;5073929;28;20021;-44
2022/12/08 02:45:33;;;;;;;36.47;17.58;;;;;;;8.18;79.57;99714.63;5073943;28;20111;-46
2022/12/08 02:47:59;;;;;;;32.78;16.92;;;;;;;8.10;79.68;99708.66;5073988;28;20024;-45
2022/12/08 02:50:25;;;;;;;33.72;17.73;;;;;;;8.17;79.84;99712.19;5074143;28;20441;-44
2022/12/08 02:52:51;;;;;;;30.05;16.70;;;;;;;8.14;79.59;99709.91;5073833;28;20020;-45
2022/12/08 02:55:34;;;;;;;36.97;16.77;;;;;;;8.10;79.43;99716.59;5073968;28;20346;-46
2022/12/08 02:58:28;;;;;;;32.50;17.13;;;;;;;8.10;80.26;99716.59;5074329;28;20039;-45
2022/12/08 03:01:05;;;;;;;35.88;16.75;;;;;;;8.12;79.65;99726.00;5074099;28;20117;-45
2022/12/08 03:04:01;;;;;;;35.03;17.05;;;;;;;8.26;78.87;99720.84;5073642;28;20081;-45
2022/12/08 03:06:41;;;;;;;31.63;16.05;;;;;;;8.05;79.74;99717.16;5073896;28;20380;-45
2022/12/08 03:09:19;;;;;;;32.47;16.27;;;;;;;7.74;81.57;99723.53;5073553;28;20035;-44
2022/12/08 03:11:47;;;;;;;32.17;16.38;;;;;;;7.96;80.41;99715.66;5073775;28;20033;-44
2022/12/08 03:14:16;;;;;;;33.10;17.45;;;;;;;8.22;79.74;99709.78;5073690;28;20125;-45
2022/12/08 03:16:46;;;;;;;32.78;16.90;;;;;;;8.21;79.29;99706.31;5073250;28;20110;-44
2022/12/08 03:19:19;;;;;;;32.67;17.23;;;;;;;8.17;78.69;99697.09;5073340;28;20020;-45
2022/12/08 03:21:49;;;;;;;32.58;16.30;;;;;;;8.01;79.87;99711.44;5073317;28;20043;-46
2022/12/08 03:24:16;;;;;;;33.47;16.42;;;;;;;8.26;79.28;99711.03;5073304;28;20070;-45
2022/12/08 03:26:55;;;;;;;28.65;15.50;;;;;;;7.94;78.95;99702.56;5073535;28;20128;-45
2022/12/08 03:29:21;;;;;;;29.05;14.90;;;;;;;7.87;80.22;99699.03;5073409;28;20029;-45
2022/12/08 03:31:54;;;;;;;30.50;14.68;;;;;;;7.81;79.88;99695.28;5073380;28;20024;-44
2022/12/08 03:34:24;;;;;;;25.85;14.00;;;;;;;7.67;80.55;99698.78;5073180;28;20111;-44
2022/12/08 03:36:49;;;;;;;31.55;14.90;;;;;;;7.68;81.47;99704.94;5073123;28;20377;-45
2022/12/08 03:39:14;;;;;;;33.45;14.88;;;;;;;7.57;81.57;99714.97;5073291;28;20029;-46
2022/12/08 03:41:40;;;;;;;31.65;14.77;;;;;;;7.71;80.61;99717.78;5071952;28;20041;-44
2022/12/08 03:44:05;;;;;;;30.23;15.13;;;;;;;7.73;80.66;99719.25;5073033;28;20170;-44
2022/12/08 03:46:31;;;;;;;29.25;15.15;;;;;;;7.58;80.95;99732.50;5073302;28;20107;-45
2022/12/08 03:48:56;;;;;;;28.88;14.73;;;;;;;7.76;80.81;99731.31;5073175;28;20353;-43
2022/12/08 03:51:23;;;;;;;26.17;13.95;;;;;;;7.74;80.42;99712.94;5073178;28;20025;-44
2022/12/08 03:53:49;;;;;;;29.48;15.70;;;;;;;7.67;80.60;99719.16;5073062;28;20028;-44
2022/12/08 03:56:35;;;;;;;30.95;15.07;;;;;;;7.54;81.53;99710.06;5072923;28;20025;-46
2022/12/08 03:59:01;;;;;;;28.65;14.48;;;;;;;7.57;80.64;99719.44;5072825;28;20047;-46
2022/12/08 04:01:27;;;;;;;32.33;15.50;;;;;;;7.78;80.14;99716.84;5072624;28;20025;-44
2022/12/08 04:03:53;;;;;;;29.58;14.80;;;;;;;7.53;81.70;99721.63;5072759;28;20376;-44
2022/12/08 04:06:19;;;;;;;42.45;22.85;;;;;;;7.29;82.61;99716.63;5072584;28;20460;-45
2022/12/08 04:08:45;;;;;;;46.72;23.85;;;;;;;7.41;81.31;99710.69;5072630;28;20112;-46
2022/12/08 04:11:10;;;;;;;77.43;37.80;;;;;;;7.47;81.82;99708.34;5072478;28;20127;-44
2022/12/08 04:13:37;;;;;;;95.97;45.38;;;;;;;7.28;81.32;99689.34;5072510;28;20461;-44
2022/12/08 04:16:04;;;;;;;104.45;49.75;;;;;;;7.46;80.64;99715.44;5072310;28;20049;-44
2022/12/08 04:18:30;;;;;;;37.90;18.45;;;;;;;7.43;80.89;99727.22;5072591;28;20032;-43
2022/12/08 04:20:55;;;;;;;30.50;16.13;;;;;;;7.38;80.99;99726.94;5072607;28;20111;-44
2022/12/08 04:23:21;;;;;;;32.17;16.92;;;;;;;7.24;82.40;99717.19;5072864;28;20091;-43
2022/12/08 04:25:46;;;;;;;33.03;16.92;;;;;;;7.36;81.91;99721.00;5072340;28;20464;-43
2022/12/08 04:28:12;;;;;;;30.65;15.63;;;;;;;7.51;81.15;99725.50;5072368;28;20025;-44
2022/12/08 04:30:38;;;;;;;30.08;15.57;;;;;;;7.70;79.92;99732.84;5072537;28;20045;-44
2022/12/08 04:33:03;;;;;;;29.73;15.50;;;;;;;7.57;80.53;99727.41;5072128;28;20391;-44
2022/12/08 04:35:29;;;;;;;35.75;15.65;;;;;;;7.48;80.36;99724.00;5072430;28;20111;-44
2022/12/08 04:37:54;;;;;;;32.15;15.98;;;;;;;7.40;81.59;99724.13;5072330;28;20024;-42
2022/12/08 04:40:20;;;;;;;34.22;15.85;;;;;;;7.60;80.30;99721.75;5072082;28;20021;-43
2022/12/08 04:42:45;;;;;;;31.88;16.23;;;;;;;7.67;80.27;99724.47;5072196;28;20039;-44
2022/12/08 04:45:11;;;;;;;37.13;17.73;;;;;;;7.49;81.58;99733.59;5072180;28;20362;-44
2022/12/08 04:47:37;;;;;;;71.82;37.03;;;;;;;7.55;81.39;99727.56;5071821;28;20025;-44
2022/12/08 04:50:03;;;;;;;35.08;17.67;;;;;;;7.68;84.80;99713.69;5071602;28;20032;-45
2022/12/08 04:52:28;;;;;;;32.17;15.77;;;;;;;7.90;79.81;99719.03;5069196;28;20035;-45
2022/12/08 04:54:54;;;;;;;31.45;15.65;;;;;;;7.78;79.95;99721.34;5054250;28;20392;-44
2022/12/08 04:57:19;;;;;;;30.20;14.98;;;;;;;7.62;80.47;99719.72;5051879;28;20449;-45
2022/12/08 04:59:45;;;;;;;30.52;16.00;;;;;;;7.75;80.65;99721.69;5051686;28;20096;-36
2022/12/08 05:02:10;;;;;;;30.65;15.20;;;;;;;7.70;80.15;99729.41;5051306;28;20350;-37
2022/12/08 05:04:35;;;;;;;31.92;16.20;;;;;;;7.55;80.21;99724.13;5051609;28;20025;-36
2022/12/08 05:07:01;;;;;;;33.35;16.45;;;;;;;7.74;80.21;99728.00;5051586;28;20098;-36
2022/12/08 05:09:27;;;;;;;33.35;17.20;;;;;;;7.79;79.78;99734.41;5051307;28;20107;-36
2022/12/08 05:11:52;;;;;;;37.28;18.80;;;;;;;7.61;80.67;99742.72;5051626;28;20396;-37
2022/12/08 05:14:18;;;;;;;41.80;22.48;;;;;;;7.65;80.36;99748.47;5051882;28;20400;-37
2022/12/08 05:16:45;;;;;;;52.53;27.75;;;;;;;7.75;80.62;99750.84;5050707;28;20045;-37
2022/12/08 05:19:12;;;;;;;39.80;20.65;;;;;;;7.50;81.11;99742.38;5051264;28;20021;-36
2022/12/08 05:21:38;;;;;;;35.25;16.10;;;;;;;7.55;80.82;99727.56;5051528;28;20110;-37
2022/12/08 05:24:04;;;;;;;35.92;16.25;;;;;;;7.78;80.16;99743.34;5051170;28;20046;-44
2022/12/08 05:26:29;;;;;;;33.65;15.75;;;;;;;7.63;80.06;99755.78;5051186;28;20020;-45
2022/12/08 05:28:55;;;;;;;35.33;16.42;;;;;;;7.36;81.53;99758.06;5051073;28;20025;-36
2022/12/08 05:31:20;;;;;;;31.35;15.77;;;;;;;7.61;82.18;99757.81;5050971;28;20013;-36
2022/12/08 05:33:48;;;;;;;35.10;15.90;;;;;;;7.79;81.04;99755.59;5050999;28;20396;-35
2022/12/08 05:36:15;;;;;;;32.35;16.30;;;;;;;7.88;79.99;99761.63;5051310;28;20071;-36
2022/12/08 05:38:40;;;;;;;32.53;16.48;;;;;;;7.91;80.27;99763.06;5050988;28;20033;-36
2022/12/08 05:41:07;;;;;;;27.63;15.43;;;;;;;7.73;80.08;99769.59;5050741;28;20453;-36
2022/12/08 05:43:32;;;;;;;32.88;15.98;;;;;;;7.73;81.81;99768.75;5056000;28;20060;-36
2022/12/08 05:45:58;;;;;;;27.48;14.60;;;;;;;7.71;82.01;99774.25;5063633;28;20051;-36
2022/12/08 05:48:24;;;;;;;36.47;17.40;;;;;;;7.71;81.64;99768.09;5057401;28;20024;-36
2022/12/08 05:50:50;;;;;;;54.80;27.58;;;;;;;7.74;81.28;99781.81;5070151;28;20019;-36
2022/12/08 05:53:17;;;;;;;34.35;17.25;;;;;;;7.87;80.06;99786.47;5070367;28;20052;-36
2022/12/08 05:55:43;;;;;;;30.63;15.13;;;;;;;8.06;79.61;99777.13;5070573;28;20031;-37
2022/12/08 05:58:17;;;;;;;34.67;15.80;;;;;;;7.93;80.42;99791.03;5070176;28;20396;-36
2022/12/08 06:00:44;;;;;;;32.55;15.98;;;;;;;7.98;79.68;99793.13;5069795;28;20027;-36
2022/12/08 06:03:14;;;;;;;44.90;24.85;;;;;;;7.93;79.92;99791.03;5070346;28;20028;-35
2022/12/08 06:05:41;;;;;;;46.20;23.98;;;;;;;8.08;79.49;99785.69;5072889;28;20545;-36
2022/12/08 06:08:07;;;;;;;35.53;17.67;;;;;;;7.93;80.51;99792.84;5074130;28;20047;-37
2022/12/08 06:10:33;;;;;;;38.60;17.73;;;;;;;7.95;80.23;99789.00;5072317;28;20025;-36
2022/12/08 06:12:58;;;;;;;33.60;17.95;;;;;;;8.22;79.24;99792.81;5072353;28;20017;-36
2022/12/08 06:15:24;;;;;;;38.40;17.40;;;;;;;8.17;79.63;99791.72;5073266;28;20056;-36
2022/12/08 06:17:49;;;;;;;38.10;18.10;;;;;;;8.04;79.86;99797.69;5073380;28;20476;-36
2022/12/08 06:20:15;;;;;;;64.43;32.15;;;;;;;7.83;80.96;99793.16;5073067;28;20492;-37
2022/12/08 06:22:40;;;;;;;48.45;22.45;;;;;;;7.97;80.81;99792.28;5072920;28;20025;-37
2022/12/08 06:25:06;;;;;;;37.88;18.88;;;;;;;8.12;80.08;99792.25;5074120;28;20035;-37
2022/12/08 06:27:32;;;;;;;38.10;18.17;;;;;;;8.07;81.27;99793.81;5074122;28;20020;-36
2022/12/08 06:29:58;;;;;;;34.95;18.42;;;;;;;8.11;80.60;99803.06;5073949;28;20025;-35
2022/12/08 06:32:24;;;;;;;34.95;17.20;;;;;;;8.10;80.52;99775.72;5073434;28;20027;-36
2022/12/08 06:34:49;;;;;;;34.75;17.92;;;;;;;8.05;81.73;99790.53;5073853;28;20561;-36
2022/12/08 06:37:14;;;;;;;36.03;16.98;;;;;;;7.90;83.05;99799.34;5074004;28;20028;-35
2022/12/08 06:39:40;;;;;;;38.38;17.58;;;;;;;7.88;82.37;99805.81;5073443;28;20023;-37
2022/12/08 06:44:50;;;;;;;38.78;18.33;;;;;;;8.09;82.31;99810.38;5073835;28;20515;-36
2022/12/08 06:47:15;;;;;;;39.20;18.17;;;;;;;8.09;81.85;99805.06;5073519;28;20020;-36
2022/12/08 06:49:40;;;;;;;33.65;17.48;;;;;;;8.07;81.47;99810.53;5072864;28;20033;-37
2022/12/08 06:52:06;;;;;;;37.85;18.42;;;;;;;8.19;81.63;99808.25;5073381;28;20016;-36
2022/12/08 06:54:31;;;;;;;76.43;37.80;;;;;;;8.36;81.41;99808.88;5073305;28;20028;-36
2022/12/08 06:56:57;;;;;;;46.92;20.92;;;;;;;8.15;82.06;99810.47;5073664;28;20021;-36
2022/12/08 06:59:24;;;;;;;35.92;17.23;;;;;;;8.22;82.21;99806.06;5073544;28;20016;-36
2022/12/08 07:01:51;;;;;;;38.72;17.02;;;;;;;8.54;80.07;99811.13;5073390;28;20507;-37
2022/12/08 07:04:16;;;;;;;41.42;18.38;;;;;;;8.53;80.13;99807.66;5071900;28;20573;-37
2022/12/08 07:06:42;;;;;;;42.35;19.33;;;;;;;8.42;80.63;99810.78;5073348;28;20032;-37
2022/12/08 07:09:07;;;;;;;40.03;19.65;;;;;;;8.53;79.73;99812.94;5072802;28;20027;-36
2022/12/08 07:11:32;;;;;;;41.10;18.42;;;;;;;8.49;80.03;99813.50;5073117;28;20028;-38
2022/12/08 07:13:58;;;;;;;42.53;18.58;;;;;;;8.64;80.23;99818.75;5073095;28;20032;-36
2022/12/08 07:16:23;;;;;;;43.33;19.27;;;;;;;8.56;80.36;99812.56;5072866;28;20072;-36
2022/12/08 07:18:49;;;;;;;37.13;18.73;;;;;;;8.52;80.30;99816.59;5072745;28;20028;-36
2022/12/08 07:21:15;;;;;;;45.80;20.20;;;;;;;8.54;80.58;99819.88;5072796;28;20020;-36
2022/12/08 07:23:44;;;;;;;38.58;19.67;;;;;;;8.36;81.26;99822.13;5072905;28;20468;-36
2022/12/08 07:26:11;;;;;;;43.33;19.73;;;;;;;8.39;82.65;99827.84;5072786;28;20550;-37
2022/12/08 07:28:38;;;;;;;38.75;18.88;;;;;;;8.44;81.25;99837.94;5072794;28;20024;-36
2022/12/08 07:31:05;;;;;;;53.17;22.10;;;;;;;8.49;80.82;99837.38;5072912;28;20021;-37
2022/12/08 07:33:31;;;;;;;45.67;21.48;;;;;;;8.62;80.37;99842.81;5071329;28;20387;-38
2022/12/08 07:36:01;;;;;;;40.55;19.42;;;;;;;8.95;78.03;99839.69;5072728;28;20353;-36
2022/12/08 07:38:27;;;;;;;40.67;17.48;;;;;;;8.77;79.00;99850.72;5072578;28;20077;-36
2022/12/08 07:40:53;;;;;;;46.03;19.77;;;;;;;8.97;77.37;99849.09;5072577;28;20032;-38
2022/12/08 07:43:19;;;;;;;37.08;17.75;;;;;;;8.75;78.19;99856.22;5072506;28;20456;-36
2022/12/08 07:45:45;;;;;;;35.75;18.25;;;;;;;8.38;80.06;99858.03;5072620;28;20024;-36
2022/12/08 07:48:11;;;;;;;42.67;21.08;;;;;;;8.46;79.55;99862.44;5072772;28;20364;-36
2022/12/08 07:50:36;;;;;;;41.25;19.08;;;;;;;8.39;80.04;99861.50;5072561;28;20021;-37
2022/12/08 07:53:01;;;;;;;38.78;18.63;;;;;;;8.36;80.27;99870.66;5072566;28;20024;-37
2022/12/08 07:55:27;;;;;;;37.17;19.55;;;;;;;8.55;79.72;99868.47;5072389;28;20033;-37
2022/12/08 07:57:53;;;;;;;34.60;18.73;;;;;;;8.53;79.68;99866.00;5072267;28;20391;-37
2022/12/08 08:00:19;;;;;;;40.75;19.17;;;;;;;8.47;80.06;99874.69;5071914;28;20023;-37
2022/12/08 08:02:44;;;;;;;46.78;20.63;;;;;;;8.41;80.30;99862.16;5071974;28;20103;-37
2022/12/08 08:05:13;;;;;;;44.63;19.42;;;;;;;8.60;79.51;99861.59;5072078;28;20067;-37
2022/12/08 08:07:45;;;;;;;42.15;18.33;;;;;;;8.68;79.52;99854.50;5071789;28;20056;-37
2022/12/08 08:10:12;;;;;;;40.75;19.00;;;;;;;9.03;77.42;99865.28;5071590;28;20032;-37
2022/12/08 08:12:37;;;;;;;37.65;19.25;;;;;;;9.14;76.69;99870.09;5071742;28;20017;-36
2022/12/08 08:15:08;;;;;;;44.03;22.52;;;;;;;8.80;78.04;99875.06;5071704;28;20025;-37
2022/12/08 08:17:35;;;;;;;37.67;19.35;;;;;;;8.83;78.05;99867.72;5071915;28;20032;-36
2022/12/08 08:20:02;;;;;;;39.67;21.30;;;;;;;8.82;77.96;99868.75;5071677;28;20020;-36
2022/12/08 08:22:27;;;;;;;36.78;20.20;;;;;;;9.16;76.85;99876.03;5071749;28;20032;-37
2022/12/08 08:24:53;;;;;;;36.00;18.45;;;;;;;9.00;77.39;99872.63;5071787;28;20036;-36
2022/12/08 08:27:19;;;;;;;39.28;18.13;;;;;;;8.74;78.39;99848.47;5071026;28;20017;-36
2022/12/08 08:29:44;;;;;;;36.95;17.90;;;;;;;8.83;77.92;99870.38;5071963;28;20025;-37
2022/12/08 08:32:10;;;;;;;37.88;18.30;;;;;;;8.89;77.92;99873.13;5071397;28;20032;-36
2022/12/08 08:34:35;;;;;;;36.03;17.42;;;;;;;8.94;77.58;99872.53;5071293;28;20113;-37
2022/12/08 08:37:01;;;;;;;33.17;17.48;;;;;;;8.84;78.17;99867.53;5071314;28;20112;-35
2022/12/08 08:39:26;;;;;;;33.22;17.23;;;;;;;8.67;78.62;99866.16;5070855;28;20036;-37
2022/12/08 08:41:51;;;;;;;35.97;18.08;;;;;;;8.89;77.34;99856.34;5071267;28;20024;-35
2022/12/08 08:44:17;;;;;;;37.83;17.92;;;;;;;9.09;77.14;99862.66;5071142;28;20166;-36
2022/12/08 08:46:43;;;;;;;34.50;17.20;;;;;;;8.91;78.12;99857.81;5071216;28;20412;-36
2022/12/08 08:49:08;;;;;;;40.47;18.90;;;;;;;9.05;77.66;99864.06;5070998;28;20036;-36
2022/12/08 08:51:34;;;;;;;37.22;17.67;;;;;;;8.99;77.21;99860.34;5071263;28;20028;-35
2022/12/08 08:53:59;;;;;;;40.33;18.02;;;;;;;9.06;77.47;99847.09;5071033;28;20028;-36
2022/12/08 08:56:25;;;;;;;35.63;17.67;;;;;;;9.14;76.97;99840.88;5071105;28;20043;-36
2022/12/08 08:58:52;;;;;;;38.25;18.30;;;;;;;9.25;76.50;99842.97;5071068;28;20546;-37
2022/12/08 09:01:19;;;;;;;34.45;17.48;;;;;;;9.17;76.88;99843.13;5070909;28;20025;-37
2022/12/08 09:03:46;;;;;;;41.38;18.85;;;;;;;9.13;76.94;99831.25;5070615;28;20455;-36
2022/12/08 09:06:12;;;;;;;36.58;17.45;;;;;;;9.05;76.59;99837.53;5070573;28;20487;-36
2022/12/08 09:08:38;;;;;;;40.28;18.15;;;;;;;9.10;77.18;99831.63;5070803;28;20078;-38
2022/12/08 09:11:04;;;;;;;39.65;18.80;;;;;;;8.88;77.19;99841.44;5070947;28;20024;-36
2022/12/08 09:13:29;;;;;;;36.72;17.70;;;;;;;8.86;77.82;99832.88;5070882;28;20352;-38
2022/12/08 09:15:55;;;;;;;35.28;18.40;;;;;;;9.05;77.03;99823.44;5070253;28;20144;-36
2022/12/08 09:18:20;;;;;;;37.22;18.52;;;;;;;8.78;78.74;99839.94;5070448;28;20123;-37
2022/12/08 09:20:45;;;;;;;40.92;18.98;;;;;;;8.72;79.43;99842.50;5070648;28;20035;-37
2022/12/08 09:23:11;;;;;;;39.92;18.58;;;;;;;8.86;78.91;99832.88;5070399;28;20025;-37
2022/12/08 09:25:36;;;;;;;37.08;18.42;;;;;;;9.05;78.03;99815.47;5070454;28;20056;-38
2022/12/08 09:28:01;;;;;;;39.67;18.85;;;;;;;9.17;77.29;99819.22;5071100;28;20032;-36
2022/12/08 09:30:27;;;;;;;41.00;19.38;;;;;;;9.27;76.10;99822.41;5070440;28;20040;-37
2022/12/08 09:32:52;;;;;;;45.22;20.63;;;;;;;9.08;76.99;99821.22;5070291;28;20020;-36
2022/12/08 09:35:18;;;;;;;46.90;20.40;;;;;;;9.23;76.47;99818.44;5070496;28;20035;-35
2022/12/08 09:37:43;;;;;;;49.20;22.25;;;;;;;9.47;75.61;99809.25;5070032;28;20523;-37
2022/12/08 09:40:14;;;;;;;44.15;21.20;;;;;;;9.32;76.25;99804.03;5069238;28;20043;-37
2022/12/08 09:42:55;;;;;;;38.70;20.15;;;;;;;9.39;75.96;99809.41;5070468;28;20389;-37
2022/12/08 09:45:23;;;;;;;41.33;20.45;;;;;;;9.26;76.52;99804.00;5070276;28;20025;-37
2022/12/08 09:48:10;;;;;;;46.00;21.08;;;;;;;9.14;77.49;99806.34;5070328;28;20464;-37
2022/12/08 09:50:56;;;;;;;47.72;20.77;;;;;;;9.37;76.70;99806.13;5070144;28;20476;-37
2022/12/08 09:53:29;;;;;;;38.22;18.33;;;;;;;9.25;76.50;99805.81;5070197;28;20029;-36
2022/12/08 09:56:21;;;;;;;35.33;17.52;;;;;;;9.62;74.71;99801.16;5069908;28;20396;-37
2022/12/08 09:58:55;;;;;;;36.00;16.60;;;;;;;9.43;75.51;99799.22;5070012;28;20035;-36
2022/12/08 10:01:22;;;;;;;35.83;17.95;;;;;;;9.73;74.07;99797.94;5070317;28;20040;-36
2022/12/08 10:03:48;;;;;;;40.05;18.75;;;;;;;9.53;74.64;99786.38;5069938;28;20025;-37
2022/12/08 10:06:23;;;;;;;39.05;19.10;;;;;;;9.41;74.48;99793.28;5069858;28;20036;-37
2022/12/08 10:09:09;;;;;;;37.05;18.58;;;;;;;9.48;75.61;99786.97;5069971;28;20067;-36
2022/12/08 10:11:55;;;;;;;39.67;19.17;;;;;;;9.50;75.44;99778.78;5069971;28;20097;-38
2022/12/08 10:14:32;;;;;;;37.25;19.05;;;;;;;9.33;76.16;99780.97;5069981;28;20028;-37
2022/12/08 10:17:13;;;;;;;41.42;19.10;;;;;;;9.38;76.60;99782.00;5069898;28;20052;-37
2022/12/08 10:19:41;;;;;;;42.80;20.17;;;;;;;9.23;76.94;99773.31;5069944;28;20103;-37
2022/12/08 10:22:19;;;;;;;40.88;19.20;;;;;;;9.05;76.89;99765.03;5069842;28;20040;-37
2022/12/08 10:25:10;;;;;;;45.35;21.10;;;;;;;8.98;77.35;99765.78;5069562;28;20028;-36
2022/12/08 10:27:36;;;;;;;41.65;20.83;;;;;;;9.33;76.31;99767.69;5069530;28;20094;-37
2022/12/08 10:30:08;;;;;;;43.58;20.70;;;;;;;9.47;76.10;99763.25;5069904;28;20120;-37
2022/12/08 10:32:34;;;;;;;46.63;21.75;;;;;;;9.57;74.75;99775.16;5069857;28;20030;-37
2022/12/08 10:35:08;;;;;;;41.00;20.77;;;;;;;9.57;75.39;99780.47;5069614;28;20029;-37
2022/12/08 10:37:34;;;;;;;45.13;21.25;;;;;;;9.75;74.40;99776.50;5069723;28;20038;-37
2022/12/08 10:40:15;;;;;;;49.30;22.05;;;;;;;9.56;74.77;99767.41;5069582;28;20017;-37
2022/12/08 10:42:42;;;;;;;;;;;;;;;9.43;76.56;99770.00;5069435;28;20141;-37
2022/12/08 10:45:08;;;;;;;44.60;21.63;;;;;;;9.56;75.28;99762.91;5069358;28;19908;-37
2022/12/08 10:47:39;;;;;;;47.92;22.27;;;;;;;9.51;75.44;99759.19;5069610;28;20093;-37
2022/12/08 10:50:11;;;;;;;41.53;21.63;;;;;;;9.22;76.07;99761.06;5069469;28;20048;-37
2022/12/08 10:52:39;;;;;;;46.33;22.23;;;;;;;9.30;76.39;99746.81;5073345;28;20024;-36
2022/12/08 10:55:14;;;;;;;43.03;22.08;;;;;;;9.17;76.64;99742.22;5073346;28;20020;-37
2022/12/08 10:57:40;;;;;;;45.30;20.88;;;;;;;9.28;76.73;99744.34;5073205;28;20024;-38
2022/12/08 11:00:06;;;;;;;43.78;22.00;;;;;;;9.30;76.56;99746.81;5072919;28;20025;-36
2022/12/08 11:02:31;;;;;;;42.38;21.40;;;;;;;9.36;77.59;99746.84;5072882;28;20037;-37
2022/12/08 11:05:00;;;;;;;44.60;21.58;;;;;;;9.77;75.08;99748.69;5072904;28;20162;-37
2022/12/08 11:07:26;;;;;;;47.03;21.77;;;;;;;9.51;75.39;99751.22;5072783;28;20074;-37
2022/12/08 11:09:57;;;;;;;44.35;21.95;;;;;;;9.74;75.15;99742.97;5072598;28;20286;-37
2022/12/08 11:12:26;;;;;;;44.78;21.92;;;;;;;9.63;75.39;99743.50;5072753;28;20040;-37
2022/12/08 11:14:59;;;;;;;;;;;;;;;9.62;74.92;99742.72;5073118;28;20036;-36
2022/12/08 11:17:27;;;;;;;44.70;23.13;;;;;;;9.74;74.75;99740.28;5072940;28;19931;-36
2022/12/08 11:20:19;;;;;;;40.50;20.00;;;;;;;9.34;75.67;99737.44;5072743;28;20024;-38
2022/12/08 11:22:50;;;;;;;49.00;23.23;;;;;;;9.45;75.77;99728.09;5072821;28;20473;-37
2022/12/08 11:25:22;;;;;;;45.08;21.85;;;;;;;9.38;76.53;99726.22;5072481;28;20035;-38
2022/12/08 11:27:49;;;;;;;44.70;21.85;;;;;;;9.57;75.90;99726.53;5073112;28;20029;-36
2022/12/08 11:30:18;;;;;;;41.67;21.85;;;;;;;9.56;75.33;99725.72;5072748;28;20040;-36
2022/12/08 11:32:47;;;;;;;37.63;19.58;;;;;;;9.63;75.20;99723.06;5072569;28;20178;-36
2022/12/08 11:35:35;;;;;;;30.63;15.77;;;;;;;9.46;76.19;99721.75;5072658;28;20104;-37
2022/12/08 11:38:11;;;;;;;32.95;16.88;;;;;;;9.41;76.63;99706.44;5072572;28;20028;-37
2022/12/08 11:40:38;;;;;;;30.65;16.25;;;;;;;9.61;75.78;99711.81;5072515;28;20020;-38